PWSweather.com
Personal Weather Stations
Station Observations
SHAHALMS1
Eftra, Falkenberg, HA

EftraFalkenberg, HA

Lat: 56.85, Lon: 12.65

Elevation: 140

Station Type:

http://hem.passagen.se/risarp101

High Low Average
Temperature 54.3°F12.4°C 46.9°F8.3°C 50.1°F10.1°C
Dew Point 52.6°F11.4°C 34.8°F1.6°C 39.3°F4.1°C
Winds 14.4 mph 23.2 kmh 6.1 mph 9.8 kmh 9.0 mph W14.5 kmh W
Wind Gusts 37.6 mph60.5 kmh 9.3 mph15.0 kmh 22.0 mph35.4 kmh
Humidity 94% 54% 67%
Pressure 29.89 in1012.2 mb 29.62 in1003.0 mb -
Precipitation 0.14 in3.6 mm - -
Hour Temp Dew Point Humidity Winds Wind Gusts Pressure Precip Precip Rate Daily Precip Total
12:00 AM 54.3°F12.4°C 52.6°F11.4°C 94% 7.2 mph W11.6 kmh W 16.8 mph27.0 kmh 29.80 in1009.1 mb 0.05 in1.3 mm 0.00 in0.0 mm 0.05 in1.3 mm
12:15 AM 53.8°F12.1°C 51.8°F11.0°C 93% 6.8 mph W10.9 kmh W 14.7 mph23.7 kmh 29.80 in1009.1 mb 0.00 in0.0 mm 0.00 in0.0 mm 0.05 in1.3 mm
12:30 AM 53.4°F11.9°C 51.4°F10.8°C 93% 6.2 mph W10.0 kmh W 17.5 mph28.2 kmh 29.80 in1009.1 mb 0.00 in0.0 mm 0.00 in0.0 mm 0.05 in1.3 mm
12:45 AM 53.4°F11.9°C 51.4°F10.8°C 93% 6.4 mph W10.3 kmh W 16.1 mph25.9 kmh 29.80 in1009.1 mb 0.00 in0.0 mm 0.00 in0.0 mm 0.05 in1.3 mm
01:00 AM 53.6°F12.0°C 51.6°F10.9°C 93% 6.1 mph W9.8 kmh W 12.2 mph19.6 kmh 29.80 in1009.1 mb 0.00 in0.0 mm 0.00 in0.0 mm 0.05 in1.3 mm
01:15 AM 53.2°F11.8°C 51.3°F10.7°C 93% 7.3 mph WNW11.7 kmh WNW 22.9 mph36.9 kmh 29.80 in1009.1 mb 0.00 in0.0 mm 0.00 in0.0 mm 0.05 in1.3 mm
01:30 AM 53.1°F11.7°C 50.8°F10.4°C 92% 6.9 mph W11.1 kmh W 17.9 mph28.8 kmh 29.80 in1009.1 mb 0.00 in0.0 mm 0.00 in0.0 mm 0.05 in1.3 mm
01:45 AM 52.7°F11.5°C 49.8°F9.9°C 90% 8.0 mph W12.9 kmh W 16.8 mph27.0 kmh 29.80 in1009.1 mb 0.00 in0.0 mm 0.00 in0.0 mm 0.05 in1.3 mm
02:00 AM 52.3°F11.3°C 48.6°F9.2°C 87% 8.5 mph WNW13.7 kmh WNW 20.4 mph32.8 kmh 29.80 in1009.1 mb 0.00 in0.0 mm 0.00 in0.0 mm 0.05 in1.3 mm
02:15 AM 52.2°F11.2°C 47.5°F8.6°C 84% 9.7 mph WNW15.6 kmh WNW 27.2 mph43.8 kmh 29.80 in1009.1 mb 0.00 in0.0 mm 0.00 in0.0 mm 0.05 in1.3 mm
02:30 AM 52.0°F11.1°C 46.7°F8.2°C 82% 9.1 mph WNW14.6 kmh WNW 18.3 mph29.5 kmh 29.83 in1010.2 mb 0.00 in0.0 mm 0.00 in0.0 mm 0.05 in1.3 mm
02:45 AM 51.8°F11.0°C 46.2°F7.9°C 81% 7.8 mph WNW12.6 kmh WNW 17.5 mph28.2 kmh 29.83 in1010.2 mb 0.00 in0.0 mm 0.00 in0.0 mm 0.05 in1.3 mm
03:00 AM 51.4°F10.8°C 45.1°F7.3°C 79% 9.0 mph W14.5 kmh W 22.9 mph36.9 kmh 29.83 in1010.2 mb 0.00 in0.0 mm 0.00 in0.0 mm 0.05 in1.3 mm
03:15 AM 50.9°F10.5°C 44.6°F7.0°C 79% 6.8 mph W10.9 kmh W 12.9 mph20.8 kmh 29.83 in1010.2 mb 0.00 in0.0 mm 0.00 in0.0 mm 0.05 in1.3 mm
03:30 AM 50.5°F10.3°C 43.9°F6.6°C 78% 8.7 mph W14.0 kmh W 21.5 mph34.6 kmh 29.83 in1010.2 mb 0.00 in0.0 mm 0.00 in0.0 mm 0.05 in1.3 mm
03:45 AM 50.4°F10.2°C 43.8°F6.6°C 78% 9.8 mph W15.8 kmh W 23.6 mph38.0 kmh 29.83 in1010.2 mb 0.00 in0.0 mm 0.00 in0.0 mm 0.05 in1.3 mm
04:00 AM 50.4°F10.2°C 43.8°F6.6°C 78% 9.1 mph WNW14.6 kmh WNW 25.4 mph40.9 kmh 29.83 in1010.2 mb 0.00 in0.0 mm 0.00 in0.0 mm 0.05 in1.3 mm
04:15 AM 50.2°F10.1°C 43.6°F6.4°C 78% 6.6 mph W10.6 kmh W 14.0 mph22.5 kmh 29.80 in1009.1 mb 0.00 in0.0 mm 0.00 in0.0 mm 0.05 in1.3 mm
04:30 AM 50.2°F10.1°C 43.6°F6.4°C 78% 7.5 mph W12.1 kmh W 20.4 mph32.8 kmh 29.80 in1009.1 mb 0.00 in0.0 mm 0.00 in0.0 mm 0.05 in1.3 mm
04:45 AM 49.8°F9.9°C 42.6°F5.9°C 76% 7.2 mph NW11.6 kmh NW 19.7 mph31.7 kmh 29.80 in1009.1 mb 0.00 in0.0 mm 0.00 in0.0 mm 0.05 in1.3 mm
05:00 AM 49.6°F9.8°C 41.7°F5.4°C 74% 7.6 mph WNW12.2 kmh WNW 19.3 mph31.1 kmh 29.80 in1009.1 mb 0.00 in0.0 mm 0.00 in0.0 mm 0.05 in1.3 mm
05:15 AM 49.3°F9.6°C 41.0°F5.0°C 73% 7.8 mph WNW12.6 kmh WNW 19.0 mph30.6 kmh 29.80 in1009.1 mb 0.00 in0.0 mm 0.00 in0.0 mm 0.05 in1.3 mm
05:30 AM 49.3°F9.6°C 40.3°F4.6°C 71% 9.2 mph WNW14.8 kmh WNW 16.8 mph27.0 kmh 29.80 in1009.1 mb 0.00 in0.0 mm 0.00 in0.0 mm 0.05 in1.3 mm
05:46 AM 49.3°F9.6°C 40.3°F4.6°C 71% 7.9 mph W12.7 kmh W 21.1 mph34.0 kmh 29.77 in1008.1 mb 0.00 in0.0 mm 0.00 in0.0 mm 0.05 in1.3 mm
05:56 AM 49.1°F9.5°C 40.1°F4.5°C 71% 7.2 mph NW11.6 kmh NW 10.0 mph16.1 kmh 29.77 in1008.1 mb 0.00 in0.0 mm 0.00 in0.0 mm 0.05 in1.3 mm
05:57 AM 49.1°F9.5°C 40.1°F4.5°C 71% 7.4 mph WNW11.9 kmh WNW 10.0 mph16.1 kmh 29.77 in1008.1 mb 0.00 in0.0 mm 0.00 in0.0 mm 0.05 in1.3 mm
05:58 AM 49.1°F9.5°C 40.1°F4.5°C 71% 7.1 mph WNW11.4 kmh WNW 10.0 mph16.1 kmh 29.77 in1008.1 mb 0.00 in0.0 mm 0.00 in0.0 mm 0.05 in1.3 mm
05:59 AM 49.1°F9.5°C 40.1°F4.5°C 71% 9.1 mph WNW14.6 kmh WNW 21.1 mph34.0 kmh 29.77 in1008.1 mb 0.00 in0.0 mm 0.00 in0.0 mm 0.05 in1.3 mm
06:15 AM 49.3°F9.6°C 39.2°F4.0°C 68% 9.9 mph WNW15.9 kmh WNW 22.9 mph36.9 kmh 29.80 in1009.1 mb 0.00 in0.0 mm 0.00 in0.0 mm 0.05 in1.3 mm
06:30 AM 49.1°F9.5°C 39.4°F4.1°C 69% 9.1 mph W14.6 kmh W 21.1 mph34.0 kmh 29.80 in1009.1 mb 0.00 in0.0 mm 0.00 in0.0 mm 0.05 in1.3 mm
06:45 AM 49.1°F9.5°C 39.0°F3.9°C 68% 9.5 mph W15.3 kmh W 20.4 mph32.8 kmh 29.80 in1009.1 mb 0.00 in0.0 mm 0.00 in0.0 mm 0.05 in1.3 mm
07:00 AM 49.1°F9.5°C 39.0°F3.9°C 68% 9.4 mph WNW15.1 kmh WNW 30.4 mph48.9 kmh 29.83 in1010.2 mb 0.00 in0.0 mm 0.00 in0.0 mm 0.05 in1.3 mm
07:15 AM 48.9°F9.4°C 38.8°F3.8°C 68% 9.7 mph WNW15.6 kmh WNW 22.9 mph36.9 kmh 29.80 in1009.1 mb 0.00 in0.0 mm 0.00 in0.0 mm 0.05 in1.3 mm
07:30 AM 48.9°F9.4°C 38.4°F3.6°C 67% 10.1 mph WNW16.3 kmh WNW 20.4 mph32.8 kmh 29.83 in1010.2 mb 0.00 in0.0 mm 0.00 in0.0 mm 0.05 in1.3 mm
07:45 AM 49.1°F9.5°C 38.2°F3.4°C 66% 10.0 mph WNW16.1 kmh WNW 26.8 mph43.1 kmh 29.83 in1010.2 mb 0.00 in0.0 mm 0.00 in0.0 mm 0.05 in1.3 mm
08:00 AM 49.1°F9.5°C 37.0°F2.8°C 63% 10.1 mph W16.3 kmh W 20.8 mph33.5 kmh 29.83 in1010.2 mb 0.00 in0.0 mm 0.00 in0.0 mm 0.05 in1.3 mm
08:15 AM 48.9°F9.4°C 35.6°F2.0°C 60% 12.0 mph WNW19.3 kmh WNW 25.1 mph40.4 kmh 29.83 in1010.2 mb 0.00 in0.0 mm 0.00 in0.0 mm 0.05 in1.3 mm
08:30 AM 49.3°F9.6°C 36.4°F2.4°C 61% 8.5 mph WNW13.7 kmh WNW 20.0 mph32.2 kmh 29.86 in1011.2 mb 0.00 in0.0 mm 0.00 in0.0 mm 0.05 in1.3 mm
08:45 AM 49.5°F9.7°C 36.1°F2.3°C 60% 10.5 mph WNW16.9 kmh WNW 26.8 mph43.1 kmh 29.83 in1010.2 mb 0.00 in0.0 mm 0.00 in0.0 mm 0.05 in1.3 mm
09:00 AM 49.5°F9.7°C 35.3°F1.8°C 58% 9.7 mph WNW15.6 kmh WNW 30.8 mph49.6 kmh 29.86 in1011.2 mb 0.00 in0.0 mm 0.00 in0.0 mm 0.05 in1.3 mm
09:15 AM 49.8°F9.9°C 35.6°F2.0°C 58% 10.8 mph NW17.4 kmh NW 27.2 mph43.8 kmh 29.86 in1011.2 mb 0.00 in0.0 mm 0.00 in0.0 mm 0.05 in1.3 mm
09:30 AM 50.2°F10.1°C 36.0°F2.2°C 58% 10.4 mph NW16.7 kmh NW 28.3 mph45.5 kmh 29.86 in1011.2 mb 0.00 in0.0 mm 0.00 in0.0 mm 0.05 in1.3 mm
09:45 AM 50.5°F10.3°C 37.2°F2.9°C 60% 9.0 mph WNW14.5 kmh WNW 26.1 mph42.0 kmh 29.86 in1011.2 mb 0.00 in0.0 mm 0.00 in0.0 mm 0.05 in1.3 mm
10:00 AM 50.4°F10.2°C 34.8°F1.6°C 55% 13.5 mph NW21.7 kmh NW 29.7 mph47.8 kmh 29.86 in1011.2 mb 0.00 in0.0 mm 0.00 in0.0 mm 0.05 in1.3 mm
10:15 AM 50.5°F10.3°C 35.4°F1.9°C 56% 10.0 mph WNW16.1 kmh WNW 27.6 mph44.4 kmh 29.86 in1011.2 mb 0.00 in0.0 mm 0.00 in0.0 mm 0.05 in1.3 mm
10:30 AM 50.5°F10.3°C 35.4°F1.9°C 56% 11.9 mph WNW19.2 kmh WNW 30.8 mph49.6 kmh 29.86 in1011.2 mb 0.00 in0.0 mm 0.00 in0.0 mm 0.05 in1.3 mm
10:45 AM 50.7°F10.4°C 36.5°F2.5°C 58% 9.2 mph NW14.8 kmh NW 22.5 mph36.2 kmh 29.86 in1011.2 mb 0.00 in0.0 mm 0.00 in0.0 mm 0.05 in1.3 mm
11:00 AM 51.1°F10.6°C 36.8°F2.7°C 58% 8.2 mph WNW13.2 kmh WNW 17.5 mph28.2 kmh 29.89 in1012.2 mb 0.00 in0.0 mm 0.00 in0.0 mm 0.05 in1.3 mm
11:15 AM 50.9°F10.5°C 34.8°F1.6°C 54% 12.8 mph NW20.6 kmh NW 30.1 mph48.4 kmh 29.86 in1011.2 mb 0.00 in0.0 mm 0.00 in0.0 mm 0.05 in1.3 mm
11:30 AM 51.1°F10.6°C 35.0°F1.7°C 54% 11.9 mph WNW19.2 kmh WNW 27.9 mph44.9 kmh 29.86 in1011.2 mb 0.00 in0.0 mm 0.00 in0.0 mm 0.05 in1.3 mm
11:45 AM 51.1°F10.6°C 35.9°F2.2°C 56% 11.9 mph WNW19.2 kmh WNW 26.1 mph42.0 kmh 29.89 in1012.2 mb 0.00 in0.0 mm 0.00 in0.0 mm 0.05 in1.3 mm
12:00 PM 51.6°F10.9°C 36.9°F2.7°C 57% 11.1 mph WNW17.9 kmh WNW 32.2 mph51.8 kmh 29.86 in1011.2 mb 0.00 in0.0 mm 0.00 in0.0 mm 0.05 in1.3 mm
12:15 PM 51.6°F10.9°C 36.4°F2.4°C 56% 11.7 mph NW18.8 kmh NW 28.3 mph45.5 kmh 29.86 in1011.2 mb 0.00 in0.0 mm 0.00 in0.0 mm 0.05 in1.3 mm
12:30 PM 51.4°F10.8°C 36.7°F2.6°C 57% 11.8 mph WNW19.0 kmh WNW 25.4 mph40.9 kmh 29.86 in1011.2 mb 0.00 in0.0 mm 0.00 in0.0 mm 0.05 in1.3 mm
12:45 PM 51.6°F10.9°C 37.3°F2.9°C 58% 11.8 mph WNW19.0 kmh WNW 24.7 mph39.8 kmh 29.86 in1011.2 mb 0.00 in0.0 mm 0.00 in0.0 mm 0.05 in1.3 mm
01:00 PM 51.8°F11.0°C 37.5°F3.1°C 58% 12.6 mph WNW20.3 kmh WNW 33.6 mph54.1 kmh 29.89 in1012.2 mb 0.00 in0.0 mm 0.00 in0.0 mm 0.05 in1.3 mm
01:15 PM 52.2°F11.2°C 38.3°F3.5°C 59% 11.2 mph W18.0 kmh W 23.3 mph37.5 kmh 29.86 in1011.2 mb 0.00 in0.0 mm 0.00 in0.0 mm 0.05 in1.3 mm
01:30 PM 52.3°F11.3°C 36.6°F2.6°C 55% 10.0 mph W16.1 kmh W 25.4 mph40.9 kmh 29.86 in1011.2 mb 0.00 in0.0 mm 0.00 in0.0 mm 0.05 in1.3 mm
01:46 PM 52.3°F11.3°C 36.2°F2.3°C 54% 11.5 mph WNW18.5 kmh WNW 22.9 mph36.9 kmh 29.86 in1011.2 mb 0.00 in0.0 mm 0.00 in0.0 mm 0.05 in1.3 mm
02:00 PM 52.0°F11.1°C 35.8°F2.1°C 54% 11.0 mph W17.7 kmh W 26.8 mph43.1 kmh 29.89 in1012.2 mb 0.00 in0.0 mm 0.00 in0.0 mm 0.05 in1.3 mm
02:15 PM 51.8°F11.0°C 36.1°F2.3°C 55% 10.3 mph WNW16.6 kmh WNW 24.3 mph39.1 kmh 29.89 in1012.2 mb 0.00 in0.0 mm 0.00 in0.0 mm 0.05 in1.3 mm
02:30 PM 51.6°F10.9°C 36.0°F2.2°C 55% 9.7 mph WNW15.6 kmh WNW 23.3 mph37.5 kmh 29.89 in1012.2 mb 0.00 in0.0 mm 0.00 in0.0 mm 0.05 in1.3 mm
02:45 PM 51.4°F10.8°C 35.8°F2.1°C 55% 10.9 mph WNW17.5 kmh WNW 36.5 mph58.7 kmh 29.89 in1012.2 mb 0.00 in0.0 mm 0.00 in0.0 mm 0.05 in1.3 mm
03:00 PM 51.3°F10.7°C 35.6°F2.0°C 55% 10.7 mph W17.2 kmh W 24.7 mph39.8 kmh 29.86 in1011.2 mb 0.00 in0.0 mm 0.00 in0.0 mm 0.05 in1.3 mm
03:15 PM 50.9°F10.5°C 35.3°F1.8°C 55% 11.9 mph W19.2 kmh W 27.2 mph43.8 kmh 29.86 in1011.2 mb 0.00 in0.0 mm 0.00 in0.0 mm 0.05 in1.3 mm
03:30 PM 50.7°F10.4°C 35.1°F1.7°C 55% 11.0 mph WNW17.7 kmh WNW 24.3 mph39.1 kmh 29.86 in1011.2 mb 0.00 in0.0 mm 0.00 in0.0 mm 0.05 in1.3 mm
03:45 PM 50.2°F10.1°C 35.1°F1.7°C 56% 11.5 mph WNW18.5 kmh WNW 27.9 mph44.9 kmh 29.83 in1010.2 mb 0.00 in0.0 mm 0.00 in0.0 mm 0.05 in1.3 mm
04:00 PM 50.0°F10.0°C 35.4°F1.9°C 57% 8.8 mph W14.2 kmh W 23.6 mph38.0 kmh 29.86 in1011.2 mb 0.00 in0.0 mm 0.00 in0.0 mm 0.05 in1.3 mm
04:15 PM 50.0°F10.0°C 36.7°F2.6°C 60% 8.2 mph W13.2 kmh W 19.7 mph31.7 kmh 29.86 in1011.2 mb 0.00 in0.0 mm 0.00 in0.0 mm 0.05 in1.3 mm
04:30 PM 49.8°F9.9°C 36.1°F2.3°C 59% 10.1 mph W16.3 kmh W 20.4 mph32.8 kmh 29.86 in1011.2 mb 0.00 in0.0 mm 0.00 in0.0 mm 0.05 in1.3 mm
04:45 PM 49.8°F9.9°C 36.1°F2.3°C 59% 8.6 mph W13.8 kmh W 19.3 mph31.1 kmh 29.83 in1010.2 mb 0.00 in0.0 mm 0.00 in0.0 mm 0.05 in1.3 mm
05:00 PM 49.6°F9.8°C 36.7°F2.6°C 61% 7.7 mph W12.4 kmh W 14.0 mph22.5 kmh 29.86 in1011.2 mb 0.00 in0.0 mm 0.00 in0.0 mm 0.05 in1.3 mm
05:15 PM 49.6°F9.8°C 36.3°F2.4°C 60% 7.1 mph W11.4 kmh W 21.1 mph34.0 kmh 29.86 in1011.2 mb 0.00 in0.0 mm 0.00 in0.0 mm 0.05 in1.3 mm
05:30 PM 49.5°F9.7°C 36.1°F2.3°C 60% 8.0 mph W12.9 kmh W 19.7 mph31.7 kmh 29.86 in1011.2 mb 0.00 in0.0 mm 0.00 in0.0 mm 0.05 in1.3 mm
05:45 PM 49.6°F9.8°C 36.7°F2.6°C 61% 7.7 mph W12.4 kmh W 16.8 mph27.0 kmh 29.83 in1010.2 mb 0.00 in0.0 mm 0.00 in0.0 mm 0.05 in1.3 mm
06:00 PM 49.5°F9.7°C 36.1°F2.3°C 60% 8.2 mph W13.2 kmh W 23.3 mph37.5 kmh 29.83 in1010.2 mb 0.00 in0.0 mm 0.00 in0.0 mm 0.05 in1.3 mm
06:15 PM 49.3°F9.6°C 36.0°F2.2°C 60% 7.0 mph W11.3 kmh W 15.4 mph24.8 kmh 29.86 in1011.2 mb 0.00 in0.0 mm 0.00 in0.0 mm 0.05 in1.3 mm
06:30 PM 49.1°F9.5°C 36.2°F2.3°C 61% 9.2 mph W14.8 kmh W 22.5 mph36.2 kmh 29.83 in1010.2 mb 0.00 in0.0 mm 0.00 in0.0 mm 0.05 in1.3 mm
06:45 PM 49.1°F9.5°C 36.6°F2.6°C 62% 8.2 mph W13.2 kmh W 17.5 mph28.2 kmh 29.83 in1010.2 mb 0.00 in0.0 mm 0.00 in0.0 mm 0.05 in1.3 mm
07:00 PM 49.1°F9.5°C 36.2°F2.3°C 61% 9.1 mph W14.6 kmh W 21.8 mph35.1 kmh 29.83 in1010.2 mb 0.00 in0.0 mm 0.00 in0.0 mm 0.05 in1.3 mm
07:15 PM 49.1°F9.5°C 36.2°F2.3°C 61% 8.6 mph W13.8 kmh W 30.1 mph48.4 kmh 29.83 in1010.2 mb 0.00 in0.0 mm 0.00 in0.0 mm 0.05 in1.3 mm
07:30 PM 49.1°F9.5°C 36.2°F2.3°C 61% 7.5 mph W12.1 kmh W 16.5 mph26.6 kmh 29.83 in1010.2 mb 0.00 in0.0 mm 0.00 in0.0 mm 0.05 in1.3 mm
07:45 PM 49.1°F9.5°C 36.2°F2.3°C 61% 9.1 mph W14.6 kmh W 20.0 mph32.2 kmh 29.83 in1010.2 mb 0.00 in0.0 mm 0.00 in0.0 mm 0.05 in1.3 mm
08:00 PM 49.1°F9.5°C 36.2°F2.3°C 61% 9.1 mph W14.6 kmh W 26.5 mph42.6 kmh 29.80 in1009.1 mb 0.00 in0.0 mm 0.00 in0.0 mm 0.05 in1.3 mm
08:15 PM 49.1°F9.5°C 36.2°F2.3°C 61% 8.8 mph W14.2 kmh W 22.9 mph36.9 kmh 29.80 in1009.1 mb 0.00 in0.0 mm 0.00 in0.0 mm 0.05 in1.3 mm
08:30 PM 49.1°F9.5°C 36.2°F2.3°C 61% 10.9 mph W17.5 kmh W 27.9 mph44.9 kmh 29.80 in1009.1 mb 0.00 in0.0 mm 0.00 in0.0 mm 0.05 in1.3 mm
08:45 PM 49.1°F9.5°C 36.6°F2.6°C 62% 9.8 mph W15.8 kmh W 20.0 mph32.2 kmh 29.80 in1009.1 mb 0.00 in0.0 mm 0.00 in0.0 mm 0.05 in1.3 mm
09:00 PM 48.9°F9.4°C 36.5°F2.5°C 62% 9.2 mph WNW14.8 kmh WNW 17.2 mph27.7 kmh 29.80 in1009.1 mb 0.00 in0.0 mm 0.00 in0.0 mm 0.05 in1.3 mm
09:15 PM 48.9°F9.4°C 36.5°F2.5°C 62% 9.5 mph W15.3 kmh W 20.4 mph32.8 kmh 29.80 in1009.1 mb 0.00 in0.0 mm 0.00 in0.0 mm 0.05 in1.3 mm
09:30 PM 48.9°F9.4°C 36.5°F2.5°C 62% 8.7 mph W14.0 kmh W 17.5 mph28.2 kmh 29.77 in1008.1 mb 0.00 in0.0 mm 0.00 in0.0 mm 0.05 in1.3 mm
09:46 PM 48.6°F9.2°C 36.5°F2.5°C 63% 6.4 mph W10.3 kmh W 9.3 mph15.0 kmh 29.89 in1012.2 mb 0.00 in0.0 mm 0.00 in0.0 mm 0.05 in1.3 mm
09:47 PM 48.6°F9.2°C 36.9°F2.7°C 64% 6.1 mph W9.8 kmh W 9.3 mph15.0 kmh 29.77 in1008.1 mb 0.00 in0.0 mm 0.00 in0.0 mm 0.05 in1.3 mm
09:48 PM 48.6°F9.2°C 36.9°F2.7°C 64% 6.6 mph W10.6 kmh W 10.0 mph16.1 kmh 29.77 in1008.1 mb 0.00 in0.0 mm 0.00 in0.0 mm 0.05 in1.3 mm
09:49 PM 48.4°F9.1°C 36.8°F2.7°C 64% 6.6 mph W10.6 kmh W 10.0 mph16.1 kmh 29.77 in1008.1 mb 0.00 in0.0 mm 0.00 in0.0 mm 0.05 in1.3 mm
09:50 PM 48.2°F9.0°C 36.6°F2.6°C 64% 6.7 mph W10.8 kmh W 10.0 mph16.1 kmh 29.77 in1008.1 mb 0.00 in0.0 mm 0.00 in0.0 mm 0.05 in1.3 mm
10:01 PM 47.7°F8.7°C 38.4°F3.6°C 70% 8.5 mph W13.7 kmh W 17.5 mph28.2 kmh 29.74 in1007.1 mb 0.00 in0.0 mm 0.00 in0.0 mm 0.05 in1.3 mm
10:15 PM 47.1°F8.4°C 39.3°F4.1°C 74% 7.4 mph W11.9 kmh W 17.2 mph27.7 kmh 29.74 in1007.1 mb 0.05 in1.3 mm 0.21 in5.3 mm 0.09 in2.3 mm
10:30 PM 47.1°F8.4°C 40.6°F4.8°C 78% 10.0 mph W16.1 kmh W 21.1 mph34.0 kmh 29.74 in1007.1 mb 0.05 in1.3 mm 0.00 in0.0 mm 0.09 in2.3 mm
10:45 PM 46.9°F8.3°C 40.8°F4.9°C 79% 10.7 mph W17.2 kmh W 23.6 mph38.0 kmh 29.68 in1005.1 mb 0.09 in2.3 mm 0.16 in4.1 mm 0.14 in3.6 mm
11:00 PM 46.9°F8.3°C 41.1°F5.1°C 80% 13.8 mph W22.2 kmh W 36.9 mph59.4 kmh 29.68 in1005.1 mb 0.09 in2.3 mm 0.00 in0.0 mm 0.14 in3.6 mm
11:15 PM 47.3°F8.5°C 41.4°F5.2°C 80% 12.6 mph W20.3 kmh W 32.2 mph51.8 kmh 29.65 in1004.1 mb 0.05 in1.3 mm 0.00 in0.0 mm 0.14 in3.6 mm
11:30 PM 47.5°F8.6°C 41.6°F5.3°C 80% 11.9 mph W19.2 kmh W 22.9 mph36.9 kmh 29.62 in1003.0 mb 0.05 in1.3 mm 0.00 in0.0 mm 0.14 in3.6 mm
11:45 PM 47.3°F8.5°C 41.4°F5.2°C 80% 14.4 mph W23.2 kmh W 37.6 mph60.5 kmh 29.62 in1003.0 mb 0.06 in1.5 mm 0.04 in1.0 mm 0.06 in1.5 mm